createdAt,value
2023-04-02T00:01:02.320Z,10.26
2023-04-02T00:03:43.116Z,10.25
2023-04-02T00:06:34.535Z,10.27
2023-04-02T00:09:29.140Z,10.32
2023-04-02T00:11:57.294Z,10.32
2023-04-02T00:14:33.865Z,10.38
2023-04-02T00:17:05.484Z,10.33
2023-04-02T00:19:38.629Z,10.34
2023-04-02T00:22:16.230Z,10.28
2023-04-02T00:24:43.457Z,10.23
2023-04-02T00:27:15.076Z,10.07
2023-04-02T00:29:57.104Z,10.13
2023-04-02T00:32:31.479Z,10.15
2023-04-02T00:34:59.770Z,10.10
2023-04-02T00:37:39.317Z,10.08
2023-04-02T00:40:28.209Z,10.04
2023-04-02T00:42:59.623Z,10.05
2023-04-02T00:45:30.241Z,10.08
2023-04-02T00:48:00.207Z,10.05
2023-04-02T00:50:35.511Z,10.01
2023-04-02T00:53:11.966Z,9.99
2023-04-02T00:55:42.059Z,9.98
2023-04-02T00:58:38.467Z,9.93
2023-04-02T01:01:17.748Z,9.91
2023-04-02T01:04:01.655Z,9.91
2023-04-02T01:06:34.488Z,9.96
2023-04-02T01:09:32.865Z,9.97
2023-04-02T01:12:21.168Z,9.84
2023-04-02T01:15:21.691Z,9.77
2023-04-02T01:18:10.043Z,9.68
2023-04-02T01:20:43.335Z,9.19
2023-04-02T01:23:17.351Z,8.96
2023-04-02T01:26:18.121Z,8.87
2023-04-02T01:29:14.396Z,8.99
2023-04-02T01:31:42.796Z,9.26
2023-04-02T01:34:15.122Z,9.38
2023-04-02T01:36:47.919Z,9.43
2023-04-02T01:39:53.013Z,9.49
2023-04-02T01:42:32.415Z,9.63
2023-04-02T01:45:11.441Z,9.71
2023-04-02T01:47:39.824Z,9.74
2023-04-02T01:50:13.270Z,9.79
2023-04-02T01:52:43.475Z,9.82
2023-04-02T01:55:15.913Z,9.63
2023-04-02T01:57:46.262Z,9.47
2023-04-02T02:00:16.074Z,9.52
2023-04-02T02:02:51.985Z,9.58
2023-04-02T02:05:23.257Z,9.62
2023-04-02T02:07:52.925Z,9.42
2023-04-02T02:10:30.262Z,9.74
2023-04-02T02:13:00.734Z,9.41
2023-04-02T02:15:28.920Z,9.50
2023-04-02T02:18:01.313Z,9.46
2023-04-02T02:20:29.409Z,9.58
2023-04-02T02:22:58.193Z,9.60
2023-04-02T02:25:28.069Z,9.55
2023-04-02T02:28:01.420Z,9.51
2023-04-02T02:30:37.042Z,9.48
2023-04-02T02:33:07.264Z,9.53
2023-04-02T02:35:55.300Z,9.49
2023-04-02T02:38:42.345Z,9.56
2023-04-02T02:41:40.167Z,9.60
2023-04-02T02:44:10.350Z,9.30
2023-04-02T02:46:43.614Z,9.40
2023-04-02T02:49:18.409Z,9.40
2023-04-02T02:52:09.392Z,9.49
2023-04-02T02:54:53.961Z,9.48
2023-04-02T02:57:36.664Z,9.44
2023-04-02T03:00:06.715Z,9.36
2023-04-02T03:02:38.918Z,9.28
2023-04-02T03:05:08.983Z,9.23
2023-04-02T03:07:37.687Z,9.24
2023-04-02T03:10:37.001Z,9.12
2023-04-02T03:13:28.613Z,9.05
2023-04-02T03:16:18.955Z,8.91
2023-04-02T03:19:07.811Z,8.95
2023-04-02T03:21:49.735Z,8.92
2023-04-02T03:24:47.979Z,8.64
2023-04-02T03:27:40.840Z,8.09
2023-04-02T03:30:28.514Z,8.15
2023-04-02T03:33:15.451Z,8.17
2023-04-02T03:36:09.659Z,8.42
2023-04-02T03:38:52.474Z,8.45
2023-04-02T03:41:48.157Z,8.45
2023-04-02T03:44:29.133Z,8.49
2023-04-02T03:47:13.397Z,8.51
2023-04-02T03:49:52.181Z,8.47
2023-04-02T03:52:28.238Z,8.07
2023-04-02T03:55:01.016Z,8.19
2023-04-02T03:57:31.862Z,8.35
2023-04-02T04:00:17.533Z,8.41
2023-04-02T04:03:02.898Z,8.50
2023-04-02T04:05:31.698Z,8.57
2023-04-02T04:08:17.537Z,8.57
2023-04-02T04:10:45.185Z,8.60
2023-04-02T04:13:26.231Z,8.45
2023-04-02T04:16:05.741Z,8.15
2023-04-02T04:18:35.226Z,7.95
2023-04-02T04:21:16.155Z,8.09
2023-04-02T04:23:50.758Z,8.25
2023-04-02T04:26:44.791Z,8.37
2023-04-02T04:29:41.008Z,8.45
2023-04-02T04:32:50.781Z,8.50
2023-04-02T04:35:25.298Z,8.49
2023-04-02T04:38:08.015Z,8.06
2023-04-02T04:40:42.531Z,8.01
2023-04-02T04:43:25.037Z,8.24
2023-04-02T04:46:01.422Z,7.95
2023-04-02T04:48:37.746Z,8.06
2023-04-02T04:51:17.450Z,7.94
2023-04-02T04:53:51.017Z,7.95
2023-04-02T04:56:27.307Z,8.04
2023-04-02T04:59:19.493Z,8.22
2023-04-02T05:02:17.775Z,8.16
2023-04-02T05:04:52.037Z,8.06
2023-04-02T05:07:28.515Z,8.08
2023-04-02T05:10:05.305Z,8.30
2023-04-02T05:12:56.968Z,8.45
2023-04-02T05:15:42.431Z,8.61
2023-04-02T05:18:20.534Z,8.83
2023-04-02T05:20:55.053Z,9.05
2023-04-02T05:23:28.607Z,9.04
2023-04-02T05:26:18.837Z,9.13
2023-04-02T05:28:52.425Z,9.17
2023-04-02T05:31:26.464Z,9.21
2023-04-02T05:33:55.877Z,9.47
2023-04-02T05:36:29.628Z,9.32
2023-04-02T05:39:00.960Z,9.48
2023-04-02T05:41:48.533Z,9.77
2023-04-02T05:44:36.839Z,9.75
2023-04-02T05:47:21.482Z,9.33
2023-04-02T05:50:01.736Z,9.73
2023-04-02T05:52:34.706Z,9.55
2023-04-02T05:55:13.795Z,9.56
2023-04-02T05:58:13.649Z,9.13
2023-04-02T06:00:50.391Z,9.01
2023-04-02T06:03:40.233Z,9.08
2023-04-02T06:06:29.700Z,9.61
2023-04-02T06:09:08.930Z,9.55
2023-04-02T06:11:49.615Z,9.55
2023-04-02T06:14:18.861Z,9.78
2023-04-02T06:16:48.335Z,10.34
2023-04-02T06:19:22.762Z,10.76
2023-04-02T06:21:53.486Z,11.03
2023-04-02T06:24:26.019Z,11.34
2023-04-02T06:27:02.894Z,11.43
2023-04-02T06:29:41.081Z,11.68
2023-04-02T06:32:13.609Z,11.98
2023-04-02T06:34:44.424Z,12.12
2023-04-02T06:37:38.713Z,12.42
2023-04-02T06:40:26.240Z,12.77
2023-04-02T06:42:59.973Z,12.99
2023-04-02T06:45:42.461Z,13.26
2023-04-02T06:48:18.263Z,13.20
2023-04-02T06:51:07.430Z,13.40
2023-04-02T06:53:39.318Z,13.55
2023-04-02T06:56:47.838Z,13.79
2023-04-02T06:59:21.578Z,13.13
2023-04-02T07:01:57.511Z,13.19
2023-04-02T07:04:26.119Z,13.59
2023-04-02T07:06:54.409Z,13.07
2023-04-02T07:09:24.069Z,13.74
2023-04-02T07:11:55.292Z,14.09
2023-04-02T07:14:22.403Z,14.31
2023-04-02T07:16:49.712Z,14.40
2023-04-02T07:19:22.330Z,14.30
2023-04-02T07:21:53.882Z,14.13
2023-04-02T07:24:22.337Z,14.36
2023-04-02T07:26:49.536Z,14.52
2023-04-02T07:29:17.893Z,14.73
2023-04-02T07:31:45.454Z,14.75
2023-04-02T07:34:12.709Z,14.96
2023-04-02T07:36:39.890Z,14.00
2023-04-02T07:39:07.077Z,13.60
2023-04-02T07:41:34.248Z,13.63
2023-04-02T07:44:01.461Z,14.07
2023-04-02T07:46:28.970Z,14.51
2023-04-02T07:48:56.389Z,14.90
2023-04-02T07:51:26.263Z,14.69
2023-04-02T07:53:56.630Z,15.36
2023-04-02T07:56:25.269Z,15.84
2023-04-02T07:58:53.025Z,16.17
2023-04-02T08:01:24.725Z,15.79
2023-04-02T08:03:54.430Z,15.87
2023-04-02T08:06:22.927Z,15.23
2023-04-02T08:08:51.032Z,15.24
2023-04-02T08:11:18.152Z,15.50
2023-04-02T08:13:45.297Z,15.72
2023-04-02T08:16:12.639Z,16.12
2023-04-02T08:18:40.272Z,16.40
2023-04-02T08:21:09.644Z,16.49
2023-04-02T08:23:37.422Z,16.74
2023-04-02T08:26:05.981Z,16.72
2023-04-02T08:28:33.162Z,16.09
2023-04-02T08:31:00.374Z,16.74
2023-04-02T08:33:27.571Z,16.53
2023-04-02T08:35:54.901Z,16.04
2023-04-02T08:38:22.899Z,15.83
2023-04-02T08:40:53.055Z,16.47
2023-04-02T08:43:51.006Z,16.93
2023-04-02T08:46:30.934Z,17.51
2023-04-02T08:49:02.313Z,17.06
2023-04-02T08:51:34.598Z,17.62
2023-04-02T08:54:28.000Z,17.22
2023-04-02T08:57:19.670Z,17.81
2023-04-02T08:59:48.246Z,17.49
2023-04-02T09:02:36.618Z,17.94
2023-04-02T09:05:07.465Z,18.10
2023-04-02T09:07:35.331Z,18.51
2023-04-02T09:10:02.692Z,18.86
2023-04-02T09:12:32.350Z,19.15
2023-04-02T09:15:24.960Z,19.28
2023-04-02T09:18:07.127Z,19.16
2023-04-02T09:20:34.308Z,19.35
2023-04-02T09:23:01.516Z,19.02
2023-04-02T09:25:32.447Z,18.55
2023-04-02T09:28:04.228Z,17.96
2023-04-02T09:30:34.087Z,17.77
2023-04-02T09:33:09.916Z,18.56
2023-04-02T09:35:58.297Z,18.46
2023-04-02T09:38:35.592Z,18.67
2023-04-02T09:41:19.174Z,18.73
2023-04-02T09:43:46.630Z,18.83
2023-04-02T09:46:13.848Z,18.64
2023-04-02T09:48:46.377Z,18.23
2023-04-02T09:51:15.715Z,18.63
2023-04-02T09:53:49.712Z,19.04
2023-04-02T09:56:23.591Z,19.25
2023-04-02T09:59:06.818Z,19.40
2023-04-02T10:01:40.261Z,18.75
2023-04-02T10:04:39.069Z,19.50
2023-04-02T10:07:07.134Z,19.29
2023-04-02T10:09:37.697Z,18.82
2023-04-02T10:12:08.208Z,19.26
2023-04-02T10:14:43.626Z,18.43
2023-04-02T10:17:41.175Z,18.48
2023-04-02T10:20:21.378Z,18.84
2023-04-02T10:22:49.273Z,19.45
2023-04-02T10:25:19.852Z,19.06
2023-04-02T10:28:24.558Z,18.90
2023-04-02T10:30:56.696Z,18.65
2023-04-02T10:33:38.133Z,19.44
2023-04-02T10:36:38.173Z,20.03
2023-04-02T10:39:31.989Z,20.50
2023-04-02T10:42:11.338Z,20.51
2023-04-02T10:45:04.891Z,20.30
2023-04-02T10:47:50.654Z,20.49
2023-04-02T10:50:28.338Z,20.92
2023-04-02T10:53:06.960Z,21.23
2023-04-02T10:55:43.255Z,21.64
2023-04-02T10:58:25.945Z,21.54
2023-04-02T11:01:00.502Z,21.59
2023-04-02T11:03:43.796Z,21.45
2023-04-02T11:06:21.480Z,21.96
2023-04-02T11:08:52.483Z,22.00
2023-04-02T11:11:27.858Z,21.47
2023-04-02T11:14:13.008Z,21.55
2023-04-02T11:16:44.041Z,21.18
2023-04-02T11:19:17.524Z,21.79
2023-04-02T11:21:58.658Z,22.37
2023-04-02T11:24:33.942Z,22.71
2023-04-02T11:27:18.779Z,22.72
2023-04-02T11:30:14.412Z,22.73
2023-04-02T11:32:49.789Z,23.01
2023-04-02T11:35:46.584Z,22.76
2023-04-02T11:38:19.814Z,23.24
2023-04-02T11:40:53.364Z,23.27
2023-04-02T11:43:38.357Z,23.77
2023-04-02T11:46:20.821Z,24.19
2023-04-02T11:48:48.042Z,24.27
2023-04-02T11:51:21.423Z,24.53
2023-04-02T11:53:58.801Z,24.97
2023-04-02T11:56:47.453Z,25.26
2023-04-02T11:59:23.528Z,25.50
2023-04-02T12:02:21.706Z,25.52
2023-04-02T12:05:04.648Z,25.33
2023-04-02T12:08:09.081Z,24.68
2023-04-02T12:10:56.960Z,23.27
2023-04-02T12:13:48.385Z,23.65
2023-04-02T12:16:17.250Z,23.95
2023-04-02T12:18:54.147Z,24.01
2023-04-02T12:21:25.766Z,23.86
2023-04-02T12:23:56.293Z,24.45
2023-04-02T12:26:38.826Z,25.37
2023-04-02T12:29:26.478Z,26.07
2023-04-02T12:31:56.032Z,26.57
2023-04-02T12:34:28.917Z,26.16
2023-04-02T12:36:59.939Z,26.48
2023-04-02T12:39:28.531Z,27.25
2023-04-02T12:41:56.417Z,27.83
2023-04-02T12:44:27.476Z,27.87
2023-04-02T12:46:55.171Z,27.72
2023-04-02T12:49:40.554Z,27.56
2023-04-02T12:52:11.861Z,28.47
2023-04-02T12:54:46.894Z,28.92
2023-04-02T12:57:40.638Z,28.70
2023-04-02T13:00:23.000Z,28.63
2023-04-02T13:03:00.766Z,29.50
2023-04-02T13:05:41.625Z,28.85
2023-04-02T13:08:31.230Z,27.65
2023-04-02T13:11:03.342Z,28.74
2023-04-02T13:13:37.993Z,29.67
2023-04-02T13:16:24.760Z,30.27
2023-04-02T13:18:52.037Z,30.32
2023-04-02T13:21:21.971Z,30.25
2023-04-02T13:23:49.065Z,30.06
2023-04-02T13:26:22.446Z,29.16
2023-04-02T13:28:57.455Z,28.45
2023-04-02T13:31:24.930Z,28.01
2023-04-02T13:33:52.350Z,27.06
2023-04-02T13:36:19.540Z,26.06
2023-04-02T13:38:46.722Z,25.60
2023-04-02T13:41:26.604Z,25.00
2023-04-02T13:43:55.960Z,24.40
2023-04-02T13:46:26.693Z,24.50
2023-04-02T13:48:55.603Z,24.86
2023-04-02T13:51:44.713Z,26.13
2023-04-02T13:54:29.802Z,27.25
2023-04-02T13:56:57.487Z,28.08
2023-04-02T13:59:26.334Z,28.16
2023-04-02T14:02:01.991Z,28.87
2023-04-02T14:04:33.673Z,28.98
2023-04-02T14:07:18.692Z,29.61
2023-04-02T14:09:53.321Z,30.00
2023-04-02T14:12:38.630Z,30.64
2023-04-02T14:15:40.904Z,31.07
2023-04-02T14:18:23.292Z,31.20
2023-04-02T14:21:21.572Z,30.84
2023-04-02T14:23:56.101Z,30.51
2023-04-02T14:26:46.694Z,31.31
2023-04-02T14:29:21.651Z,31.52
2023-04-02T14:32:06.795Z,31.08
2023-04-02T14:34:48.850Z,30.70
2023-04-02T14:37:39.866Z,30.78
2023-04-02T14:40:25.547Z,31.50
2023-04-02T14:43:04.567Z,31.86
2023-04-02T14:46:00.401Z,32.30
2023-04-02T14:48:47.827Z,31.93
2023-04-02T14:51:14.885Z,32.35
2023-04-02T14:53:51.857Z,32.78
2023-04-02T14:56:22.206Z,32.71
2023-04-02T14:58:54.691Z,31.63
2023-04-02T15:01:32.086Z,31.92
2023-04-02T15:04:09.162Z,31.38
2023-04-02T15:06:44.885Z,31.27
2023-04-02T15:09:19.372Z,32.08
2023-04-02T15:11:53.222Z,32.34
2023-04-02T15:14:39.098Z,33.20
2023-04-02T15:17:07.680Z,33.62
2023-04-02T15:19:34.801Z,33.44
2023-04-02T15:22:13.756Z,32.34
2023-04-02T15:24:55.690Z,32.92
2023-04-02T15:27:37.717Z,32.99
2023-04-02T15:30:09.280Z,33.30
2023-04-02T15:32:39.780Z,32.14
2023-04-02T15:35:47.055Z,31.28
2023-04-02T15:38:41.241Z,31.29
2023-04-02T15:41:27.812Z,31.81
2023-04-02T15:44:09.886Z,32.51
2023-04-02T15:46:56.450Z,32.55
2023-04-02T15:49:32.308Z,33.17
2023-04-02T15:52:22.425Z,33.16
2023-04-02T15:55:14.178Z,32.29
2023-04-02T15:58:02.522Z,32.24
2023-04-02T16:00:33.221Z,32.56
2023-04-02T16:03:32.837Z,31.85
2023-04-02T16:06:19.115Z,30.92
2023-04-02T16:09:08.816Z,30.55
2023-04-02T16:11:36.876Z,30.50
2023-04-02T16:14:21.083Z,30.51
2023-04-02T16:16:50.759Z,30.66
2023-04-02T16:19:35.494Z,30.99
2023-04-02T16:22:22.960Z,31.30
2023-04-02T16:24:58.349Z,30.68
2023-04-02T16:27:43.535Z,29.66
2023-04-02T16:30:51.711Z,29.80
2023-04-02T16:33:43.985Z,28.93
2023-04-02T16:36:29.574Z,28.69
2023-04-02T16:39:04.271Z,27.98
2023-04-02T16:42:07.927Z,26.97
2023-04-02T16:44:52.808Z,24.30
2023-04-02T16:47:47.603Z,22.66
2023-04-02T16:50:14.763Z,21.95
2023-04-02T16:52:52.553Z,21.63
2023-04-02T16:55:45.710Z,21.36
2023-04-02T16:58:27.673Z,20.77
2023-04-02T17:01:00.783Z,20.67
2023-04-02T17:03:46.129Z,19.93
2023-04-02T17:06:13.464Z,20.10
2023-04-02T17:08:44.379Z,19.96
2023-04-02T17:11:39.128Z,19.82
2023-04-02T17:14:21.075Z,19.65
2023-04-02T17:16:52.906Z,19.48
2023-04-02T17:19:21.815Z,18.98
2023-04-02T17:21:53.169Z,18.22
2023-04-02T17:24:41.698Z,18.30
2023-04-02T17:27:17.327Z,18.24
2023-04-02T17:29:48.497Z,17.43
2023-04-02T17:32:24.354Z,17.20
2023-04-02T17:34:51.528Z,17.36
2023-04-02T17:37:24.929Z,17.48
2023-04-02T17:40:04.759Z,17.38
2023-04-02T17:43:13.006Z,17.37
2023-04-02T17:45:40.116Z,17.31
2023-04-02T17:48:30.930Z,17.24
2023-04-02T17:51:32.430Z,17.11
2023-04-02T17:54:21.201Z,16.97
2023-04-02T17:56:57.227Z,16.80
2023-04-02T18:00:01.647Z,16.61
2023-04-02T18:02:52.567Z,16.35
2023-04-02T18:05:53.784Z,16.15
2023-04-02T18:08:56.811Z,16.00
2023-04-02T18:11:51.539Z,16.01
2023-04-02T18:14:34.507Z,15.85
2023-04-02T18:17:13.823Z,15.76
2023-04-02T18:19:58.802Z,15.66
2023-04-02T18:22:47.709Z,15.52
2023-04-02T18:25:39.864Z,15.50
2023-04-02T18:28:33.613Z,15.38
2023-04-02T18:31:19.454Z,15.35
2023-04-02T18:34:14.346Z,15.30
2023-04-02T18:36:53.199Z,15.19
2023-04-02T18:39:20.234Z,15.10
2023-04-02T18:42:19.107Z,15.00
2023-04-02T18:45:02.846Z,15.17
2023-04-02T18:47:51.304Z,14.79
2023-04-02T18:50:33.667Z,14.57
2023-04-02T18:53:13.426Z,14.56
2023-04-02T18:56:01.893Z,14.59
2023-04-02T18:58:53.349Z,14.81
2023-04-02T19:01:28.501Z,14.92
2023-04-02T19:04:03.105Z,14.98
2023-04-02T19:06:45.064Z,15.08
2023-04-02T19:09:15.549Z,15.07
2023-04-02T19:11:43.144Z,14.96
2023-04-02T19:14:15.561Z,15.03
2023-04-02T19:17:02.981Z,15.03
2023-04-02T19:19:42.423Z,14.94
2023-04-02T19:22:26.192Z,14.46
2023-04-02T19:25:13.271Z,14.17
2023-04-02T19:28:02.400Z,14.19
2023-04-02T19:30:40.140Z,14.14
2023-04-02T19:33:35.810Z,14.13
2023-04-02T19:36:33.049Z,14.17
2023-04-02T19:39:29.746Z,13.97
2023-04-02T19:42:17.713Z,13.75
2023-04-02T19:44:49.351Z,13.62
2023-04-02T19:47:21.898Z,13.52
2023-04-02T19:49:52.100Z,13.40
2023-04-02T19:52:21.696Z,13.34
2023-04-02T19:54:49.009Z,13.21
2023-04-02T19:57:17.594Z,13.25
2023-04-02T19:59:44.805Z,13.11
2023-04-02T20:02:12.075Z,12.94
2023-04-02T20:04:39.345Z,12.80
2023-04-02T20:07:06.633Z,12.77
2023-04-02T20:09:33.819Z,12.81
2023-04-02T20:12:01.406Z,12.85
2023-04-02T20:14:28.663Z,12.88
2023-04-02T20:16:56.134Z,12.89
2023-04-02T20:19:23.317Z,12.71
2023-04-02T20:21:50.525Z,12.73
2023-04-02T20:24:17.717Z,12.84
2023-04-02T20:26:44.910Z,12.89
2023-04-02T20:29:12.360Z,12.94
2023-04-02T20:31:39.704Z,12.92
2023-04-02T20:34:08.793Z,12.86
2023-04-02T20:36:36.296Z,12.70
2023-04-02T20:39:04.312Z,12.65
2023-04-02T20:41:31.553Z,12.63
2023-04-02T20:43:58.882Z,12.71
2023-04-02T20:46:26.448Z,12.78
2023-04-02T20:48:54.198Z,12.82
2023-04-02T20:51:22.125Z,12.95
2023-04-02T20:53:49.536Z,12.95
2023-04-02T20:56:18.060Z,12.87
2023-04-02T20:58:45.658Z,12.87
2023-04-02T21:01:23.319Z,12.79
2023-04-02T21:03:55.837Z,12.54
2023-04-02T21:06:25.222Z,12.64
2023-04-02T21:08:53.008Z,12.72
2023-04-02T21:11:22.750Z,12.83
2023-04-02T21:13:50.603Z,12.87
2023-04-02T21:16:28.612Z,12.93
2023-04-02T21:18:58.962Z,12.97
2023-04-02T21:21:38.152Z,12.98
2023-04-02T21:24:08.433Z,12.91
2023-04-02T21:26:39.291Z,12.91
2023-04-02T21:29:07.520Z,12.74
2023-04-02T21:31:37.880Z,12.70
2023-04-02T21:34:06.840Z,12.74
2023-04-02T21:36:36.686Z,12.70
2023-04-02T21:39:07.265Z,12.68
2023-04-02T21:41:40.213Z,12.68
2023-04-02T21:44:09.362Z,12.59
2023-04-02T21:46:39.695Z,12.59
2023-04-02T21:49:10.292Z,12.62
2023-04-02T21:51:39.162Z,12.66
2023-04-02T21:54:07.248Z,12.71
2023-04-02T21:56:39.641Z,12.65
2023-04-02T21:59:08.937Z,12.66
2023-04-02T22:01:38.740Z,12.82
2023-04-02T22:04:08.074Z,12.89
2023-04-02T22:06:42.076Z,12.73
2023-04-02T22:09:13.011Z,12.72
2023-04-02T22:11:43.760Z,12.45
2023-04-02T22:14:11.738Z,12.38
2023-04-02T22:16:40.244Z,12.32
2023-04-02T22:19:10.158Z,12.47
2023-04-02T22:21:38.622Z,12.44
2023-04-02T22:24:09.427Z,12.53
2023-04-02T22:26:37.271Z,12.55
2023-04-02T22:29:05.743Z,12.54
2023-04-02T22:31:35.258Z,12.50
2023-04-02T22:34:04.976Z,12.45
2023-04-02T22:36:32.637Z,12.53
2023-04-02T22:39:01.171Z,12.42
2023-04-02T22:41:29.752Z,12.23
2023-04-02T22:43:57.816Z,12.25
2023-04-02T22:46:26.933Z,12.25
2023-04-02T22:48:54.916Z,12.08
2023-04-02T22:51:24.333Z,12.30
2023-04-02T22:53:54.321Z,12.33
2023-04-02T22:56:25.079Z,12.21
2023-04-02T22:58:52.814Z,12.07
2023-04-02T23:01:23.903Z,11.92
2023-04-02T23:03:54.447Z,11.97
2023-04-02T23:06:22.110Z,11.85
2023-04-02T23:08:49.738Z,11.87
2023-04-02T23:11:23.301Z,12.05
2023-04-02T23:13:52.994Z,11.77
2023-04-02T23:16:20.791Z,11.77
2023-04-02T23:18:49.123Z,11.96
2023-04-02T23:21:18.007Z,11.96
2023-04-02T23:23:46.507Z,11.94
2023-04-02T23:26:38.697Z,11.94
2023-04-02T23:29:06.716Z,11.87
2023-04-02T23:31:33.984Z,11.87
2023-04-02T23:34:01.157Z,11.73
2023-04-02T23:36:33.122Z,11.85
2023-04-02T23:39:02.768Z,11.93
2023-04-02T23:41:31.081Z,11.96
2023-04-02T23:43:59.416Z,11.98
2023-04-02T23:46:26.917Z,11.91
2023-04-02T23:48:54.976Z,11.85
2023-04-02T23:51:23.254Z,11.83
2023-04-02T23:53:51.420Z,11.73
2023-04-02T23:56:19.500Z,11.76
2023-04-02T23:58:49.831Z,11.73
